createdAt,value
2019-06-09T00:00:19.259Z,25.40
2019-06-09T00:01:34.279Z,25.60
2019-06-09T00:02:19.502Z,26.10
2019-06-09T00:03:19.239Z,27.40
2019-06-09T00:04:19.237Z,27.60
2019-06-09T00:05:19.213Z,27.80
2019-06-09T00:06:19.201Z,28.40
2019-06-09T00:07:19.403Z,28.80
2019-06-09T00:08:19.505Z,28.20
2019-06-09T00:09:19.163Z,29.00
2019-06-09T00:10:19.162Z,28.80
2019-06-09T00:11:19.121Z,28.30
2019-06-09T00:12:19.132Z,26.90
2019-06-09T00:13:19.096Z,27.40
2019-06-09T00:14:19.403Z,28.00
2019-06-09T00:15:19.105Z,32.30
2019-06-09T00:16:19.073Z,37.10
2019-06-09T00:17:19.088Z,35.70
2019-06-09T00:18:19.271Z,35.40
2019-06-09T00:19:19.403Z,37.50
2019-06-09T00:20:19.028Z,39.90
2019-06-09T00:21:19.025Z,39.50
2019-06-09T00:22:18.993Z,39.90
2019-06-09T00:23:18.979Z,39.90
2019-06-09T00:24:19.283Z,40.20
2019-06-09T00:25:18.967Z,39.60
2019-06-09T00:26:18.946Z,37.90
2019-06-09T00:27:18.941Z,38.40
2019-06-09T00:28:18.969Z,38.20
2019-06-09T00:29:19.272Z,36.60
2019-06-09T00:30:25.072Z,34.70
2019-06-09T00:31:18.880Z,34.10
2019-06-09T00:32:18.880Z,33.40
2019-06-09T00:33:18.876Z,30.90
2019-06-09T00:34:19.401Z,29.20
2019-06-09T00:35:18.876Z,30.40
2019-06-09T00:36:18.801Z,29.80
2019-06-09T00:37:18.829Z,31.20
2019-06-09T00:38:18.806Z,30.20
2019-06-09T00:39:18.794Z,30.40
2019-06-09T00:40:19.178Z,30.30
2019-06-09T00:41:18.758Z,30.60
2019-06-09T00:42:18.764Z,31.30
2019-06-09T00:43:18.732Z,32.40
2019-06-09T00:44:18.706Z,31.70
2019-06-09T00:45:19.240Z,33.00
2019-06-09T00:46:19.110Z,32.90
2019-06-09T00:47:19.277Z,34.00
2019-06-09T00:48:18.675Z,33.60
2019-06-09T00:49:18.660Z,33.90
2019-06-09T00:50:18.648Z,33.30
2019-06-09T00:51:19.052Z,33.00
2019-06-09T00:52:21.490Z,32.80
2019-06-09T00:53:19.000Z,34.30
2019-06-09T00:54:19.433Z,34.00
2019-06-09T00:55:23.354Z,34.50
2019-06-09T00:56:19.358Z,37.50
2019-06-09T00:57:27.085Z,37.30
2019-06-09T00:58:22.089Z,38.30
2019-06-09T00:59:21.090Z,39.50
2019-06-09T01:00:20.414Z,39.20
2019-06-09T01:01:19.135Z,39.50
2019-06-09T01:02:22.549Z,39.10
2019-06-09T01:03:18.970Z,41.70
2019-06-09T01:04:18.598Z,41.90
2019-06-09T01:05:19.453Z,38.50
2019-06-09T01:06:18.899Z,40.40
2019-06-09T01:07:19.946Z,40.20
2019-06-09T01:08:19.142Z,39.40
2019-06-09T01:09:19.246Z,38.00
2019-06-09T01:10:20.913Z,37.70
2019-06-09T01:11:19.069Z,39.20
2019-06-09T01:12:20.862Z,38.90
2019-06-09T01:13:19.981Z,39.50
2019-06-09T01:14:19.645Z,40.90
2019-06-09T01:15:20.650Z,42.30
2019-06-09T01:16:20.110Z,41.00
2019-06-09T01:17:19.813Z,39.20
2019-06-09T01:18:19.799Z,40.10
2019-06-09T01:19:19.812Z,39.10
2019-06-09T01:20:22.048Z,40.40
2019-06-09T01:21:20.127Z,40.00
2019-06-09T01:22:19.973Z,37.30
2019-06-09T01:23:20.128Z,38.50
2019-06-09T01:24:20.109Z,39.00
2019-06-09T01:25:19.542Z,38.90
2019-06-09T01:26:19.588Z,38.60
2019-06-09T01:27:20.768Z,37.50
2019-06-09T01:28:19.866Z,39.40
2019-06-09T01:29:20.355Z,39.60
2019-06-09T01:30:23.845Z,38.60
2019-06-09T01:31:18.830Z,38.90
2019-06-09T01:32:27.580Z,40.90
2019-06-09T01:33:20.163Z,40.20
2019-06-09T01:34:20.146Z,37.50
2019-06-09T01:35:20.001Z,38.20
2019-06-09T01:36:20.158Z,39.60
2019-06-09T01:37:20.128Z,39.20
2019-06-09T01:38:20.407Z,39.40
2019-06-09T01:39:19.535Z,39.60
2019-06-09T01:40:20.815Z,41.80
2019-06-09T01:41:20.061Z,39.80
2019-06-09T01:42:20.530Z,40.20
2019-06-09T01:43:20.548Z,39.30
2019-06-09T01:44:20.635Z,38.70
2019-06-09T01:45:19.725Z,40.60
2019-06-09T01:46:20.581Z,41.30
2019-06-09T01:47:20.437Z,38.40
2019-06-09T01:48:19.021Z,40.40
2019-06-09T01:49:19.557Z,40.80
2019-06-09T01:50:19.291Z,40.40
2019-06-09T01:51:19.258Z,43.60
2019-06-09T01:52:20.004Z,46.00
2019-06-09T01:53:19.402Z,46.50
2019-06-09T01:54:20.312Z,50.20
2019-06-09T01:55:19.946Z,53.50
2019-06-09T01:56:19.954Z,55.70
2019-06-09T01:57:18.479Z,57.30
2019-06-09T01:58:21.028Z,57.30
2019-06-09T01:59:18.958Z,54.90
2019-06-09T02:00:19.247Z,54.60
2019-06-09T02:01:19.999Z,55.80
2019-06-09T02:02:36.171Z,54.30
2019-06-09T02:03:19.773Z,53.90
2019-06-09T02:04:18.590Z,56.50
2019-06-09T02:05:18.571Z,55.50
2019-06-09T02:06:19.852Z,55.40
2019-06-09T02:07:18.714Z,54.30
2019-06-09T02:08:19.066Z,54.10
2019-06-09T02:09:19.249Z,56.60
2019-06-09T02:10:20.484Z,54.70
2019-06-09T02:11:19.821Z,56.80
2019-06-09T02:12:19.496Z,57.70
2019-06-09T02:13:20.283Z,55.80
2019-06-09T02:14:19.128Z,56.80
2019-06-09T02:15:19.554Z,55.40
2019-06-09T02:16:20.246Z,56.80
2019-06-09T02:17:17.999Z,55.80
2019-06-09T02:18:19.617Z,55.00
2019-06-09T02:19:18.585Z,55.40
2019-06-09T02:20:18.278Z,55.70
2019-06-09T02:21:18.397Z,54.40
2019-06-09T02:22:18.498Z,52.40
2019-06-09T02:23:19.826Z,51.30
2019-06-09T02:24:20.700Z,53.60
2019-06-09T02:25:19.263Z,52.70
2019-06-09T02:26:18.932Z,52.50
2019-06-09T02:27:18.899Z,54.40
2019-06-09T02:28:18.928Z,51.80
2019-06-09T02:29:19.415Z,54.20
2019-06-09T02:30:23.154Z,52.30
2019-06-09T02:31:22.074Z,55.10
2019-06-09T02:32:26.294Z,54.60
2019-06-09T02:33:26.516Z,53.50
2019-06-09T02:34:21.228Z,55.20
2019-06-09T02:35:23.736Z,55.10
2019-06-09T02:36:26.194Z,54.00
2019-06-09T02:37:19.012Z,56.70
2019-06-09T02:38:18.798Z,57.20
2019-06-09T02:39:18.572Z,57.20
2019-06-09T02:40:18.566Z,56.10
2019-06-09T02:41:18.724Z,56.00
2019-06-09T02:42:18.829Z,56.30
2019-06-09T02:43:17.240Z,56.40
2019-06-09T02:44:17.141Z,56.50
2019-06-09T02:45:17.298Z,58.20
2019-06-09T02:46:17.447Z,55.10
2019-06-09T02:47:17.574Z,56.20
2019-06-09T02:48:17.617Z,57.20
2019-06-09T02:49:18.119Z,57.40
2019-06-09T02:50:17.990Z,59.10
2019-06-09T02:51:18.105Z,56.40
2019-06-09T02:52:18.812Z,55.90
2019-06-09T02:53:18.424Z,56.00
2019-06-09T02:54:18.670Z,56.70
2019-06-09T02:55:19.009Z,56.80
2019-06-09T02:56:18.675Z,56.30
2019-06-09T02:57:19.179Z,58.30
2019-06-09T02:58:16.966Z,57.00
2019-06-09T02:59:16.937Z,58.90
2019-06-09T03:00:17.292Z,60.20
2019-06-09T03:01:16.917Z,62.50
2019-06-09T03:02:16.909Z,62.80
2019-06-09T03:03:33.939Z,64.10
2019-06-09T03:04:16.998Z,64.70
2019-06-09T03:05:16.846Z,66.60
2019-06-09T03:06:17.394Z,64.70
2019-06-09T03:07:16.871Z,66.10
2019-06-09T03:08:16.836Z,67.20
2019-06-09T03:09:16.795Z,69.30
2019-06-09T03:10:16.807Z,70.30
2019-06-09T03:11:16.785Z,68.60
2019-06-09T03:12:17.166Z,67.60
2019-06-09T03:13:16.762Z,64.60
2019-06-09T03:14:16.751Z,64.90
2019-06-09T03:15:16.723Z,65.00
2019-06-09T03:16:16.723Z,65.60
2019-06-09T03:17:17.421Z,66.80
2019-06-09T03:18:16.722Z,64.40
2019-06-09T03:19:16.661Z,65.40
2019-06-09T03:20:16.649Z,64.20
2019-06-09T03:21:16.658Z,65.20
2019-06-09T03:22:16.634Z,64.90
2019-06-09T03:23:17.049Z,67.40
2019-06-09T03:24:16.619Z,66.00
2019-06-09T03:25:16.584Z,64.20
2019-06-09T03:26:16.579Z,66.30
2019-06-09T03:27:16.565Z,65.20
2019-06-09T03:28:16.527Z,64.20
2019-06-09T03:29:16.931Z,66.60
2019-06-09T03:30:17.827Z,66.90
2019-06-09T03:31:35.543Z,65.40
2019-06-09T03:32:34.031Z,67.20
2019-06-09T03:33:40.451Z,68.20
2019-06-09T03:36:15.291Z,66.70
2019-06-09T03:37:00.343Z,67.20
2019-06-09T03:38:22.904Z,67.60
2019-06-09T03:39:16.438Z,67.00
2019-06-09T03:40:16.406Z,66.50
2019-06-09T03:41:16.759Z,68.70
2019-06-09T03:42:16.368Z,69.20
2019-06-09T03:43:16.349Z,68.40
2019-06-09T03:44:16.341Z,68.60
2019-06-09T03:45:16.333Z,68.50
2019-06-09T03:46:16.310Z,67.60
2019-06-09T03:47:16.652Z,67.30
2019-06-09T03:48:16.264Z,67.20
2019-06-09T03:49:16.270Z,69.30
2019-06-09T03:50:16.242Z,70.50
2019-06-09T03:51:16.234Z,68.60
2019-06-09T03:52:16.224Z,67.80
2019-06-09T03:53:16.561Z,68.80
2019-06-09T03:54:16.198Z,67.20
2019-06-09T03:55:19.430Z,69.40
2019-06-09T03:56:16.184Z,68.30
2019-06-09T03:57:16.169Z,69.70
2019-06-09T03:58:16.147Z,69.00
2019-06-09T03:59:16.669Z,67.80
2019-06-09T04:00:19.729Z,67.20
2019-06-09T04:01:16.097Z,68.40
2019-06-09T04:02:16.087Z,67.30
2019-06-09T04:03:16.074Z,65.90
2019-06-09T04:04:16.070Z,66.90
2019-06-09T04:05:16.445Z,70.10
2019-06-09T04:06:25.452Z,66.90
2019-06-09T04:07:16.035Z,67.00
2019-06-09T04:08:15.995Z,67.90
2019-06-09T04:09:16.023Z,69.50
2019-06-09T04:10:15.982Z,68.50
2019-06-09T04:11:16.323Z,67.40
2019-06-09T04:12:15.967Z,67.00
2019-06-09T04:13:15.923Z,68.20
2019-06-09T04:14:15.929Z,66.20
2019-06-09T04:15:15.919Z,68.30
2019-06-09T04:16:16.268Z,67.40
2019-06-09T04:17:15.881Z,69.00
2019-06-09T04:18:15.889Z,69.30
2019-06-09T04:19:15.852Z,68.20
2019-06-09T04:20:15.858Z,68.50
2019-06-09T04:21:16.393Z,69.10
2019-06-09T04:22:15.808Z,67.70
2019-06-09T04:23:15.820Z,69.10
2019-06-09T04:24:15.793Z,68.00
2019-06-09T04:25:15.781Z,68.20
2019-06-09T04:26:15.761Z,67.70
2019-06-09T04:27:16.094Z,68.40
2019-06-09T04:28:15.752Z,71.80
2019-06-09T04:29:15.716Z,70.30
2019-06-09T04:30:19.080Z,71.50
2019-06-09T04:31:15.749Z,68.20
2019-06-09T04:32:16.085Z,68.50
2019-06-09T04:33:15.670Z,67.10
2019-06-09T04:34:15.694Z,65.70
2019-06-09T04:35:19.349Z,67.20
2019-06-09T04:36:26.530Z,65.80
2019-06-09T04:37:15.808Z,65.20
2019-06-09T04:38:15.609Z,66.00
2019-06-09T04:39:15.587Z,64.10
2019-06-09T04:40:15.556Z,66.00
2019-06-09T04:41:15.577Z,67.10
2019-06-09T04:42:15.576Z,71.40
2019-06-09T04:43:16.026Z,69.80
2019-06-09T04:44:15.505Z,68.70
2019-06-09T04:45:15.514Z,64.80
2019-06-09T04:46:15.483Z,65.60
2019-06-09T04:47:15.472Z,68.50
2019-06-09T04:48:15.468Z,67.60
2019-06-09T04:49:15.888Z,68.30
2019-06-09T04:50:15.428Z,68.80
2019-06-09T04:51:15.406Z,66.50
2019-06-09T04:52:15.401Z,66.10
2019-06-09T04:53:15.369Z,67.80
2019-06-09T04:54:15.359Z,66.90
2019-06-09T04:55:15.765Z,65.50
2019-06-09T04:56:15.359Z,67.60
2019-06-09T04:57:15.337Z,66.10
2019-06-09T04:58:24.674Z,67.00
2019-06-09T04:59:15.317Z,65.90
2019-06-09T05:00:18.139Z,64.80
2019-06-09T05:01:15.770Z,63.50
2019-06-09T05:02:15.248Z,65.20
2019-06-09T05:03:15.254Z,67.60
2019-06-09T05:04:15.237Z,64.50
2019-06-09T05:05:15.213Z,66.60
2019-06-09T05:06:35.149Z,63.50
2019-06-09T05:07:25.992Z,65.30
2019-06-09T05:08:15.225Z,67.10
2019-06-09T05:09:15.174Z,65.40
2019-06-09T05:10:15.168Z,64.40
2019-06-09T05:11:15.142Z,65.00
2019-06-09T05:12:15.129Z,66.20
2019-06-09T05:13:15.570Z,65.80
2019-06-09T05:14:15.105Z,63.70
2019-06-09T05:15:15.085Z,65.10
2019-06-09T05:16:15.063Z,65.00
2019-06-09T05:17:15.046Z,65.10
2019-06-09T05:18:15.384Z,65.90
2019-06-09T05:19:15.009Z,63.80
2019-06-09T05:20:15.037Z,64.40
2019-06-09T05:21:14.983Z,64.50
2019-06-09T05:22:14.977Z,66.40
2019-06-09T05:23:14.959Z,66.80
2019-06-09T05:24:15.457Z,66.20
2019-06-09T05:25:14.979Z,63.10
2019-06-09T05:26:14.924Z,63.40
2019-06-09T05:27:14.889Z,64.30
2019-06-09T05:28:14.892Z,63.00
2019-06-09T05:29:15.290Z,64.80
2019-06-09T05:30:14.859Z,65.00
2019-06-09T05:31:14.853Z,66.10
2019-06-09T05:32:14.826Z,65.10
2019-06-09T05:33:14.819Z,64.60
2019-06-09T05:34:15.027Z,63.70
2019-06-09T05:35:14.793Z,64.40
2019-06-09T05:36:14.820Z,65.30
2019-06-09T05:37:21.937Z,63.20
2019-06-09T05:38:14.759Z,63.40
2019-06-09T05:39:15.144Z,62.90
2019-06-09T05:40:15.985Z,64.20
2019-06-09T05:41:14.721Z,65.00
2019-06-09T05:42:14.700Z,66.10
2019-06-09T05:43:14.705Z,64.00
2019-06-09T05:44:15.023Z,63.30
2019-06-09T05:45:14.667Z,64.30
2019-06-09T05:46:14.630Z,63.80
2019-06-09T05:47:14.618Z,65.40
2019-06-09T05:48:14.603Z,66.90
2019-06-09T05:49:14.601Z,65.20
2019-06-09T05:50:15.064Z,65.00
2019-06-09T05:51:14.582Z,64.60
2019-06-09T05:52:14.570Z,62.90
2019-06-09T05:53:14.527Z,64.00
2019-06-09T05:54:14.518Z,64.40
2019-06-09T05:55:14.521Z,66.30
2019-06-09T05:56:15.198Z,65.30
2019-06-09T05:57:14.498Z,65.40
2019-06-09T05:58:14.469Z,67.00
2019-06-09T05:59:14.467Z,67.00
2019-06-09T06:00:14.461Z,66.90
2019-06-09T06:01:14.441Z,67.90
2019-06-09T06:02:14.906Z,67.80
2019-06-09T06:03:14.403Z,68.30
2019-06-09T06:04:14.378Z,66.90
2019-06-09T06:05:14.372Z,64.00
2019-06-09T06:06:14.361Z,65.20
2019-06-09T06:07:19.641Z,63.60
2019-06-09T06:08:14.677Z,63.20
2019-06-09T06:09:14.306Z,64.10
2019-06-09T06:10:14.318Z,62.00
2019-06-09T06:11:14.338Z,62.30
2019-06-09T06:12:14.278Z,61.50
2019-06-09T06:13:14.257Z,63.60
2019-06-09T06:14:14.763Z,61.40
2019-06-09T06:15:14.238Z,59.10
2019-06-09T06:16:14.218Z,60.90
2019-06-09T06:17:14.215Z,60.70
2019-06-09T06:18:14.211Z,59.80
2019-06-09T06:19:14.172Z,59.60
2019-06-09T06:20:14.973Z,58.30
2019-06-09T06:21:14.192Z,58.80
2019-06-09T06:22:14.149Z,60.00
2019-06-09T06:23:14.119Z,60.30
2019-06-09T06:24:14.118Z,60.70
2019-06-09T06:25:14.172Z,59.90
2019-06-09T06:26:14.589Z,59.60
2019-06-09T06:27:14.064Z,59.00
2019-06-09T06:28:14.048Z,58.90
2019-06-09T06:29:14.042Z,60.40
2019-06-09T06:30:14.027Z,60.30
2019-06-09T06:31:14.021Z,63.30
2019-06-09T06:32:14.512Z,63.00
2019-06-09T06:33:13.987Z,62.90
2019-06-09T06:34:13.959Z,61.60
2019-06-09T06:35:13.936Z,65.50
2019-06-09T06:36:13.928Z,66.00
2019-06-09T06:37:14.513Z,63.60
2019-06-09T06:38:13.906Z,65.90
2019-06-09T06:39:13.893Z,66.70
2019-06-09T06:40:13.921Z,64.10
2019-06-09T06:41:13.912Z,63.20
2019-06-09T06:42:14.199Z,62.30
2019-06-09T06:43:13.836Z,62.80
2019-06-09T06:44:13.826Z,62.50
2019-06-09T06:45:13.821Z,64.20
2019-06-09T06:46:13.814Z,64.30
2019-06-09T06:47:16.189Z,65.80
2019-06-09T06:48:13.749Z,65.80
2019-06-09T06:49:13.738Z,65.00
2019-06-09T06:50:13.780Z,65.50
2019-06-09T06:51:13.730Z,64.00
2019-06-09T06:52:14.129Z,62.80
2019-06-09T06:53:13.699Z,63.60
2019-06-09T06:54:13.700Z,64.10
2019-06-09T06:55:13.673Z,62.50
2019-06-09T06:56:13.649Z,63.40
2019-06-09T06:57:13.647Z,61.20
2019-06-09T06:58:14.065Z,61.90
2019-06-09T06:59:13.598Z,61.90
2019-06-09T07:00:13.661Z,63.90
2019-06-09T07:01:13.589Z,63.20
2019-06-09T07:02:13.573Z,61.00
2019-06-09T07:03:13.562Z,62.10
2019-06-09T07:04:14.023Z,59.50
2019-06-09T07:05:13.530Z,61.80
2019-06-09T07:06:13.523Z,63.70
2019-06-09T07:07:21.026Z,62.50
2019-06-09T07:08:13.472Z,60.30
2019-06-09T07:09:13.511Z,60.30
2019-06-09T07:10:13.967Z,59.60
2019-06-09T07:11:13.444Z,59.00
2019-06-09T07:12:13.413Z,59.80
2019-06-09T07:13:13.394Z,59.10
2019-06-09T07:14:13.392Z,61.70
2019-06-09T07:15:13.377Z,60.30
2019-06-09T07:16:13.703Z,64.30
2019-06-09T07:17:13.369Z,63.20
2019-06-09T07:18:13.378Z,65.40
2019-06-09T07:19:13.376Z,68.00
2019-06-09T07:20:13.319Z,69.80
2019-06-09T07:21:13.297Z,65.20
2019-06-09T07:22:13.722Z,68.10
2019-06-09T07:23:13.261Z,65.90
2019-06-09T07:24:13.296Z,65.20
2019-06-09T07:25:13.229Z,65.60
2019-06-09T07:26:13.233Z,64.10
2019-06-09T07:27:13.191Z,65.70
2019-06-09T07:28:13.661Z,64.90
2019-06-09T07:29:13.227Z,66.30
2019-06-09T07:30:13.428Z,65.40
2019-06-09T07:31:13.206Z,67.00
2019-06-09T07:32:13.123Z,65.80
2019-06-09T07:33:15.329Z,65.60
2019-06-09T07:34:13.092Z,68.10
2019-06-09T07:35:13.090Z,66.90
2019-06-09T07:36:13.266Z,63.70
2019-06-09T07:37:13.066Z,61.40
2019-06-09T07:38:21.891Z,59.60
2019-06-09T07:39:13.026Z,56.60
2019-06-09T07:40:13.023Z,59.60
2019-06-09T07:41:12.998Z,59.00
2019-06-09T07:42:12.991Z,59.30
2019-06-09T07:43:13.418Z,59.30
2019-06-09T07:44:12.974Z,60.60
2019-06-09T07:45:12.951Z,61.40
2019-06-09T07:46:12.916Z,61.60
2019-06-09T07:47:12.900Z,62.30
2019-06-09T07:48:13.321Z,61.90
2019-06-09T07:49:12.879Z,61.70
2019-06-09T07:50:12.874Z,60.90
2019-06-09T07:51:12.864Z,62.30
2019-06-09T07:52:12.845Z,60.80
2019-06-09T07:53:13.178Z,58.50
2019-06-09T07:54:12.823Z,56.90
2019-06-09T07:55:12.779Z,58.70
2019-06-09T07:56:12.791Z,57.10
2019-06-09T07:57:12.777Z,57.90
2019-06-09T07:58:13.120Z,58.70
2019-06-09T07:59:12.737Z,60.00
2019-06-09T08:00:12.719Z,58.60
2019-06-09T08:01:12.752Z,60.30
2019-06-09T08:02:12.693Z,58.20
2019-06-09T08:03:12.681Z,59.00
2019-06-09T08:04:13.156Z,56.90
2019-06-09T08:05:12.661Z,58.30
2019-06-09T08:06:12.633Z,57.70
2019-06-09T08:07:12.632Z,55.80
2019-06-09T08:08:24.311Z,57.30
2019-06-09T08:09:12.602Z,55.90
2019-06-09T08:10:12.985Z,58.70
2019-06-09T08:11:12.609Z,58.70
2019-06-09T08:12:12.539Z,57.90
2019-06-09T08:13:12.525Z,57.20
2019-06-09T08:14:12.526Z,56.80
2019-06-09T08:15:12.510Z,56.60
2019-06-09T08:16:13.076Z,57.90
2019-06-09T08:17:12.483Z,59.70
2019-06-09T08:18:12.459Z,55.10
2019-06-09T08:19:12.431Z,55.10
2019-06-09T08:20:12.430Z,55.60
2019-06-09T08:21:12.407Z,55.50
2019-06-09T08:22:12.908Z,53.90
2019-06-09T08:23:12.440Z,53.70
2019-06-09T08:24:12.387Z,54.30
2019-06-09T08:25:12.350Z,54.60
2019-06-09T08:26:12.336Z,53.90
2019-06-09T08:27:12.355Z,53.40
2019-06-09T08:28:12.669Z,53.40
2019-06-09T08:29:12.315Z,52.90
2019-06-09T08:30:13.112Z,54.10
2019-06-09T08:31:12.278Z,52.30
2019-06-09T08:32:12.277Z,53.20
2019-06-09T08:33:12.239Z,53.70
2019-06-09T08:34:12.593Z,52.70
2019-06-09T08:35:22.082Z,51.00
2019-06-09T08:36:12.199Z,51.30
2019-06-09T08:37:12.208Z,52.40
2019-06-09T08:38:12.176Z,51.10
2019-06-09T08:39:15.083Z,50.70
2019-06-09T08:40:12.194Z,51.20
2019-06-09T08:41:12.179Z,49.00
2019-06-09T08:42:12.126Z,49.60
2019-06-09T08:43:12.114Z,48.90
2019-06-09T08:44:12.453Z,48.40
2019-06-09T08:45:12.125Z,49.20
2019-06-09T08:46:12.062Z,49.50
2019-06-09T08:47:12.089Z,48.10
2019-06-09T08:48:12.019Z,48.40
2019-06-09T08:49:12.421Z,47.90
2019-06-09T08:50:12.051Z,46.80
2019-06-09T08:51:12.022Z,48.00
2019-06-09T08:52:11.975Z,47.00
2019-06-09T08:53:12.078Z,46.80
2019-06-09T08:54:12.436Z,48.00
2019-06-09T08:55:11.933Z,47.20
2019-06-09T08:56:11.917Z,45.50
2019-06-09T08:57:11.895Z,45.50
2019-06-09T08:58:11.880Z,44.10
2019-06-09T08:59:12.359Z,45.00
2019-06-09T09:00:11.863Z,44.20
2019-06-09T09:01:11.923Z,44.70
2019-06-09T09:02:12.275Z,42.20
2019-06-09T09:03:11.814Z,43.70
2019-06-09T09:04:11.855Z,43.40
2019-06-09T09:05:12.073Z,41.60
2019-06-09T09:06:11.761Z,42.00
2019-06-09T09:07:11.744Z,42.30
2019-06-09T09:08:11.732Z,41.60
2019-06-09T09:09:21.684Z,40.40
2019-06-09T09:10:11.753Z,39.10
2019-06-09T09:11:12.394Z,40.10
2019-06-09T09:12:11.935Z,40.20
2019-06-09T09:13:12.070Z,38.40
2019-06-09T09:14:12.034Z,38.50
2019-06-09T09:15:11.629Z,41.10
2019-06-09T09:16:11.911Z,41.00
2019-06-09T09:17:11.942Z,43.50
2019-06-09T09:18:11.633Z,45.90
2019-06-09T09:19:11.569Z,48.60
2019-06-09T09:20:11.636Z,48.70
2019-06-09T09:21:11.898Z,46.00
2019-06-09T09:22:11.539Z,48.60
2019-06-09T09:23:12.047Z,52.30
2019-06-09T09:24:46.845Z,51.30
2019-06-09T09:25:20.813Z,48.50
2019-06-09T09:26:11.519Z,46.10
2019-06-09T09:27:11.473Z,42.00
2019-06-09T09:28:11.794Z,40.50
2019-06-09T09:29:12.037Z,41.60
2019-06-09T09:30:13.075Z,39.80
2019-06-09T09:31:11.475Z,39.20
2019-06-09T09:32:11.392Z,38.10
2019-06-09T09:33:11.550Z,37.40
2019-06-09T09:34:11.342Z,36.90
2019-06-09T09:35:11.775Z,36.70
2019-06-09T09:36:11.544Z,36.90
2019-06-09T09:37:11.512Z,37.80
2019-06-09T09:38:11.342Z,36.60
2019-06-09T09:39:11.694Z,37.30
2019-06-09T09:40:11.745Z,38.00
2019-06-09T09:41:11.591Z,37.60
2019-06-09T09:42:11.415Z,38.80
2019-06-09T09:43:11.712Z,38.70
2019-06-09T09:44:12.075Z,38.70
2019-06-09T09:45:11.186Z,39.00
2019-06-09T09:46:11.589Z,38.10
2019-06-09T09:47:11.577Z,39.40
2019-06-09T09:48:11.388Z,39.50
2019-06-09T09:49:11.491Z,37.30
2019-06-09T09:50:11.863Z,38.90
2019-06-09T09:51:11.551Z,39.60
2019-06-09T09:52:11.403Z,38.00
2019-06-09T09:53:12.363Z,38.20
2019-06-09T09:54:11.259Z,38.40
2019-06-09T09:55:11.181Z,39.40
2019-06-09T09:56:11.823Z,40.10
2019-06-09T09:57:11.007Z,39.30
2019-06-09T09:58:12.111Z,40.80
2019-06-09T09:59:11.697Z,40.30
2019-06-09T10:00:13.461Z,40.10
2019-06-09T10:01:11.575Z,39.70
2019-06-09T10:02:10.946Z,41.00
2019-06-09T10:03:10.925Z,39.50
2019-06-09T10:04:12.103Z,38.90
2019-06-09T10:05:10.890Z,38.60
2019-06-09T10:06:11.801Z,38.90
2019-06-09T10:07:11.631Z,39.10
2019-06-09T10:08:11.757Z,38.60
2019-06-09T10:09:11.454Z,39.00
2019-06-09T10:10:12.367Z,41.60
2019-06-09T10:11:11.246Z,42.60
2019-06-09T10:12:11.183Z,43.20
2019-06-09T10:13:11.626Z,44.00
2019-06-09T10:14:11.933Z,47.90
2019-06-09T10:15:11.536Z,47.60
2019-06-09T10:16:12.346Z,47.40
2019-06-09T10:17:11.666Z,47.10
2019-06-09T10:18:11.205Z,48.70
2019-06-09T10:19:11.901Z,49.60
2019-06-09T10:20:10.684Z,49.60
2019-06-09T10:21:10.647Z,49.30
2019-06-09T10:22:11.635Z,48.50
2019-06-09T10:23:12.097Z,49.90
2019-06-09T10:24:11.094Z,50.60
2019-06-09T10:25:16.008Z,48.50
2019-06-09T10:26:10.875Z,50.00
2019-06-09T10:27:11.145Z,49.50
2019-06-09T10:28:11.163Z,49.80
2019-06-09T10:29:11.801Z,50.30
2019-06-09T10:30:13.182Z,49.70
2019-06-09T10:31:11.741Z,48.20
2019-06-09T10:32:11.288Z,48.60
2019-06-09T10:33:12.650Z,48.70
2019-06-09T10:34:11.814Z,48.50
2019-06-09T10:35:10.964Z,50.40
2019-06-09T10:36:11.316Z,49.80
2019-06-09T10:37:11.059Z,49.70
2019-06-09T10:38:10.688Z,49.00
2019-06-09T10:39:11.875Z,48.60
2019-06-09T10:40:18.959Z,49.20
2019-06-09T10:41:11.603Z,48.30
2019-06-09T10:42:10.866Z,48.30
2019-06-09T10:43:11.723Z,48.40
2019-06-09T10:44:10.804Z,46.70
2019-06-09T10:45:11.305Z,48.40
2019-06-09T10:46:11.632Z,47.90
2019-06-09T10:47:13.776Z,47.00
2019-06-09T10:48:10.722Z,45.60
2019-06-09T10:49:10.903Z,44.50
2019-06-09T10:50:10.264Z,40.70
2019-06-09T10:51:12.022Z,41.40
2019-06-09T10:52:10.207Z,40.40
2019-06-09T10:53:11.103Z,40.50
2019-06-09T10:54:10.880Z,39.20
2019-06-09T10:55:10.507Z,40.10
2019-06-09T10:56:10.132Z,38.70
2019-06-09T10:57:10.891Z,36.20
2019-06-09T10:58:11.251Z,34.80
2019-06-09T10:59:10.913Z,32.40
2019-06-09T11:00:25.775Z,34.40
2019-06-09T11:01:11.740Z,32.70
2019-06-09T11:02:11.148Z,31.10
2019-06-09T11:03:12.829Z,30.60
2019-06-09T11:04:10.020Z,32.00
2019-06-09T11:05:11.486Z,32.00
2019-06-09T11:06:11.614Z,31.80
2019-06-09T11:07:11.698Z,31.60
2019-06-09T11:08:11.795Z,32.40
2019-06-09T11:09:12.198Z,31.40
2019-06-09T11:10:22.926Z,32.70
2019-06-09T11:11:11.244Z,32.40
2019-06-09T11:12:10.875Z,34.10
2019-06-09T11:13:10.874Z,34.10
2019-06-09T11:14:11.663Z,35.80
2019-06-09T11:15:11.094Z,37.20
2019-06-09T11:16:11.742Z,35.20
2019-06-09T11:17:11.604Z,35.40
2019-06-09T11:18:11.976Z,34.30
2019-06-09T11:19:11.079Z,34.80
2019-06-09T11:20:11.257Z,34.40
2019-06-09T11:21:10.599Z,35.50
2019-06-09T11:22:11.431Z,37.70
2019-06-09T11:23:09.997Z,36.50
2019-06-09T11:24:10.778Z,38.80
2019-06-09T11:25:15.346Z,39.70
2019-06-09T11:26:11.718Z,39.40
2019-06-09T11:27:11.598Z,41.50
2019-06-09T11:28:09.685Z,42.20
2019-06-09T11:29:09.669Z,40.80
2019-06-09T11:30:16.646Z,38.30
2019-06-09T11:31:11.271Z,41.30
2019-06-09T11:32:12.955Z,40.00
2019-06-09T11:33:11.257Z,44.00
2019-06-09T11:34:11.316Z,42.10
2019-06-09T11:35:11.000Z,46.00
2019-06-09T11:36:10.672Z,52.40
2019-06-09T11:37:11.222Z,47.70
2019-06-09T11:38:12.121Z,44.90
2019-06-09T11:39:11.654Z,43.40
2019-06-09T11:40:13.891Z,46.50
2019-06-09T11:41:09.488Z,44.30
2019-06-09T11:42:11.645Z,43.90
2019-06-09T11:43:11.615Z,41.30
2019-06-09T11:44:11.555Z,38.50
2019-06-09T11:45:11.657Z,38.80
2019-06-09T11:46:11.361Z,40.80
2019-06-09T11:47:10.980Z,40.90
2019-06-09T11:48:11.525Z,38.50
2019-06-09T11:49:12.164Z,41.00
2019-06-09T11:50:10.867Z,39.80
2019-06-09T11:51:10.866Z,39.50
2019-06-09T11:52:12.899Z,41.10
2019-06-09T11:53:11.307Z,41.30
2019-06-09T11:54:11.397Z,38.60
2019-06-09T11:55:11.474Z,38.90
2019-06-09T11:56:11.555Z,39.10
2019-06-09T11:57:11.542Z,38.60
2019-06-09T11:58:11.198Z,39.30
2019-06-09T11:59:11.669Z,40.70
2019-06-09T12:00:17.818Z,39.00
2019-06-09T12:01:09.248Z,38.70
2019-06-09T12:02:09.252Z,36.30
2019-06-09T12:03:09.233Z,36.90
2019-06-09T12:04:11.391Z,37.00
2019-06-09T12:05:09.197Z,37.30
2019-06-09T12:06:09.632Z,39.00
2019-06-09T12:07:11.106Z,38.90
2019-06-09T12:08:10.821Z,37.70
2019-06-09T12:09:11.529Z,38.70
2019-06-09T12:10:11.031Z,39.80
2019-06-09T12:11:12.994Z,40.40
2019-06-09T12:12:11.395Z,39.90
2019-06-09T12:13:11.482Z,41.70
2019-06-09T12:14:10.966Z,39.60
2019-06-09T12:15:10.843Z,37.90
2019-06-09T12:16:11.428Z,40.40
2019-06-09T12:17:11.648Z,39.70
2019-06-09T12:18:10.691Z,41.40
2019-06-09T12:19:11.688Z,40.20
2019-06-09T12:20:11.147Z,39.70
2019-06-09T12:21:11.284Z,37.20
2019-06-09T12:22:11.175Z,36.40
2019-06-09T12:23:09.015Z,37.20
2019-06-09T12:24:11.776Z,38.50
2019-06-09T12:25:14.383Z,36.10
2019-06-09T12:26:10.931Z,38.10
2019-06-09T12:27:08.948Z,35.20
2019-06-09T12:28:11.089Z,34.50
2019-06-09T12:29:11.183Z,36.90
2019-06-09T12:30:17.470Z,34.20
2019-06-09T12:31:08.920Z,33.40
2019-06-09T12:32:11.234Z,32.20
2019-06-09T12:33:11.256Z,33.70
2019-06-09T12:34:08.920Z,33.80
2019-06-09T12:35:11.416Z,33.00
2019-06-09T12:36:11.067Z,31.30
2019-06-09T12:37:12.420Z,30.90
2019-06-09T12:38:08.844Z,29.60
2019-06-09T12:39:10.721Z,30.60
2019-06-09T12:40:08.964Z,28.90
2019-06-09T12:41:26.748Z,31.40
2019-06-09T12:42:08.798Z,30.20
2019-06-09T12:43:08.843Z,30.70
2019-06-09T12:44:08.798Z,30.30
2019-06-09T12:45:08.772Z,29.70
2019-06-09T12:46:09.514Z,29.50
2019-06-09T12:47:10.882Z,29.90
2019-06-09T12:48:08.754Z,28.10
2019-06-09T12:49:08.762Z,27.00
2019-06-09T12:50:09.477Z,26.10
2019-06-09T12:51:11.351Z,22.30
2019-06-09T12:52:12.251Z,20.90
2019-06-09T12:53:11.951Z,21.60
2019-06-09T12:54:09.329Z,22.20